Terminal Aerodrome Forecast
Issued by NWS Upton, NY

Home | Current Version | Previous Version | Text Only | Print | Product List | Glossary On
Versions: 1 2 3 4 5 6 7 8 9 10 11 12 13 14 15 16 17 18 19 20 21 22 23 24 25 26 27 28 29 30 31
000
FTUS41 KOKX 212341
TAFBDR
TAF
KBDR 212341Z 2200/2224 21011KT P6SM SCT250
     FM220700 21005KT P6SM BKN045
     FM220900 21005KT 6SM -RA OVC035
     FM221100 VRB04KT 5SM -RA BR OVC020
     FM221700 33010G17KT P6SM SCT020 BKN040
     FM222000 33014G21KT P6SM SCT040 SCT250=

USA.gov is the U.S. government's official web portal to all federal, state and local government web resources and services.